Time;durP1;ratioP1;P1;durP2;ratioP2;P2;SDS_P1;SDS_P2;PMS_P1;PMS_P2;Temp;Humidity;BMP_temperature;BMP_pressure;BME280_temperature;BME280_humidity;BME280_pressure;Samples;Min_cycle;Max_cycle;Signal;HPM_P1;HPM_P2
2024/01/14 00:00:12;;;;;;;18.93;6.90;;;2.70;99.90;;;;;;5240754;28;20561;-50
2024/01/14 00:02:42;;;;;;;21.13;8.40;;;2.70;99.90;;;;;;5236472;28;20487;-51
2024/01/14 00:05:13;;;;;;;14.43;8.40;;;2.70;99.90;;;;;;5243328;28;21048;-49
2024/01/14 00:07:43;;;;;;;16.63;7.60;;;2.70;99.90;;;;;;5240358;28;20590;-48
2024/01/14 00:10:14;;;;;;;8.73;6.70;;;2.70;99.90;;;;;;5241551;28;20194;-50
2024/01/14 00:12:45;;;;;;;18.07;8.80;;;2.70;99.90;;;;;;5240635;28;20209;-49
2024/01/14 00:15:17;;;;;;;20.50;8.80;;;2.70;99.90;;;;;;5239371;28;20722;-48
2024/01/14 00:17:48;;;;;;;13.63;8.60;;;2.70;99.90;;;;;;5243057;28;20457;-49
2024/01/14 00:20:18;;;;;;;14.70;7.23;;;2.70;99.90;;;;;;5245901;28;20444;-49
2024/01/14 00:22:49;;;;;;;22.50;7.33;;;2.70;99.90;;;;;;5241228;28;20197;-49
2024/01/14 00:25:21;;;;;;;10.80;7.33;;;2.70;99.90;;;;;;5242846;28;20226;-48
2024/01/14 00:27:52;;;;;;;10.37;7.50;;;2.70;99.90;;;;;;5238836;28;20187;-49
2024/01/14 00:30:23;;;;;;;22.70;8.97;;;2.70;99.90;;;;;;5241634;28;20572;-49
2024/01/14 00:32:54;;;;;;;11.30;7.80;;;2.70;99.90;;;;;;5240599;28;20229;-50
2024/01/14 00:35:24;;;;;;;19.73;8.20;;;2.70;99.90;;;;;;5238775;28;20186;-47
2024/01/14 00:37:55;;;;;;;12.30;7.50;;;2.70;99.90;;;;;;5244024;28;20212;-48
2024/01/14 00:40:25;;;;;;;13.30;7.90;;;2.70;99.90;;;;;;5238681;28;20198;-49
2024/01/14 00:42:56;;;;;;;11.67;7.40;;;2.70;99.90;;;;;;5238724;28;20175;-47
2024/01/14 00:45:27;;;;;;;12.23;7.30;;;2.70;99.90;;;;;;5240051;28;20720;-50
2024/01/14 00:47:58;;;;;;;14.90;6.70;;;2.70;99.90;;;;;;5240418;28;20249;-48
2024/01/14 00:50:29;;;;;;;19.27;8.40;;;2.60;99.90;;;;;;5244667;28;20193;-49
2024/01/14 00:53:00;;;;;;;14.83;7.10;;;2.70;99.90;;;;;;5241545;28;20783;-48
2024/01/14 00:55:31;;;;;;;12.33;7.40;;;2.70;99.90;;;;;;5241615;28;20435;-48
2024/01/14 00:58:01;;;;;;;14.40;8.67;;;2.70;99.90;;;;;;5245484;28;20260;-49
2024/01/14 01:00:32;;;;;;;20.30;7.80;;;2.70;99.90;;;;;;5243369;28;20653;-50
2024/01/14 01:03:03;;;;;;;15.40;7.33;;;2.70;99.90;;;;;;5246006;28;20197;-47
2024/01/14 01:05:34;;;;;;;11.83;7.50;;;2.80;99.90;;;;;;5244094;28;20182;-48
2024/01/14 01:08:05;;;;;;;13.10;7.70;;;2.80;99.90;;;;;;5246963;28;20638;-48
2024/01/14 01:10:36;;;;;;;13.30;6.43;;;2.80;99.90;;;;;;5236449;28;20467;-47
2024/01/14 01:13:07;;;;;;;10.97;6.80;;;2.90;99.90;;;;;;5240996;28;20468;-48
2024/01/14 01:15:37;;;;;;;11.83;5.60;;;2.70;99.90;;;;;;5240100;28;20257;-48
2024/01/14 01:18:08;;;;;;;12.70;5.03;;;2.80;99.90;;;;;;5241752;28;20221;-48
2024/01/14 01:20:38;;;;;;;10.90;5.00;;;2.80;99.90;;;;;;5243900;28;20174;-48
2024/01/14 01:23:09;;;;;;;10.30;4.80;;;2.80;99.90;;;;;;5247243;28;20174;-48
2024/01/14 01:25:40;;;;;;;11.60;4.60;;;2.70;99.90;;;;;;5242133;28;20178;-49
2024/01/14 01:28:10;;;;;;;6.20;4.40;;;2.70;99.90;;;;;;5242264;28;20225;-49
2024/01/14 01:30:41;;;;;;;6.60;3.60;;;2.70;99.90;;;;;;5243334;28;20642;-53
2024/01/14 01:33:12;;;;;;;4.30;4.00;;;2.60;99.90;;;;;;5241915;28;20193;-47
2024/01/14 01:35:42;;;;;;;8.27;5.10;;;2.60;99.90;;;;;;5244038;28;20204;-47
2024/01/14 01:38:13;;;;;;;11.77;4.80;;;2.60;99.90;;;;;;5237890;28;20260;-50
2024/01/14 01:40:46;;;;;;;7.13;5.00;;;2.60;99.90;;;;;;5234181;28;20207;-49
2024/01/14 01:43:16;;;;;;;5.03;4.53;;;2.60;99.90;;;;;;5242196;28;20536;-50
2024/01/14 01:45:47;;;;;;;6.80;4.43;;;2.50;99.90;;;;;;5240219;28;20429;-48
2024/01/14 01:48:19;;;;;;;6.27;4.43;;;2.50;99.90;;;;;;5242132;28;20206;-48
2024/01/14 01:50:51;;;;;;;8.33;4.47;;;2.60;99.90;;;;;;5237957;28;20638;-49
2024/01/14 01:53:25;;;;;;;4.60;4.17;;;2.50;99.90;;;;;;5236762;28;20429;-49
2024/01/14 01:55:55;;;;;;;15.43;5.00;;;2.50;99.90;;;;;;5240314;28;20445;-49
2024/01/14 01:58:26;;;;;;;8.73;4.87;;;2.40;99.90;;;;;;5240337;28;20998;-50
2024/01/14 02:00:57;;;;;;;10.10;4.97;;;2.40;99.90;;;;;;5238201;28;20178;-48
2024/01/14 02:03:27;;;;;;;10.60;5.37;;;2.40;99.90;;;;;;5241480;28;20178;-48
2024/01/14 02:05:59;;;;;;;9.20;4.60;;;2.40;99.90;;;;;;5241132;28;20183;-49
2024/01/14 02:08:30;;;;;;;5.33;3.57;;;2.30;99.90;;;;;;5240367;28;20201;-48
2024/01/14 02:11:01;;;;;;;7.30;4.20;;;2.40;99.90;;;;;;5239832;28;20444;-48
2024/01/14 02:13:31;;;;;;;9.20;5.10;;;2.40;99.90;;;;;;5242039;28;20179;-48
2024/01/14 02:16:02;;;;;;;11.57;5.73;;;2.40;99.90;;;;;;5244507;28;20196;-48
2024/01/14 02:18:32;;;;;;;16.47;6.47;;;2.30;99.90;;;;;;5237758;28;20230;-50
2024/01/14 02:21:03;;;;;;;7.47;5.43;;;2.30;99.90;;;;;;5238277;28;20276;-48
2024/01/14 02:23:39;;;;;;;9.13;5.70;;;2.30;99.90;;;;;;5241462;28;20178;-48
2024/01/14 02:26:09;;;;;;;17.43;6.10;;;2.30;99.90;;;;;;5245179;28;20186;-48
2024/01/14 02:28:41;;;;;;;6.73;4.50;;;2.20;99.90;;;;;;5239494;28;21006;-49
2024/01/14 02:31:12;;;;;;;10.50;5.00;;;2.30;99.90;;;;;;5236773;28;20715;-49
2024/01/14 02:33:42;;;;;;;8.80;4.30;;;2.40;99.90;;;;;;5243783;28;20440;-49
2024/01/14 02:36:13;;;;;;;8.97;4.53;;;2.40;99.90;;;;;;5239329;28;20594;-50
2024/01/14 02:38:43;;;;;;;10.07;4.80;;;2.40;99.90;;;;;;5239001;28;20206;-50
2024/01/14 02:41:14;;;;;;;13.43;4.43;;;2.30;99.90;;;;;;5238616;28;20265;-49
2024/01/14 02:43:45;;;;;;;7.80;3.80;;;2.40;99.90;;;;;;5240183;28;20178;-48
2024/01/14 02:46:15;;;;;;;9.43;4.20;;;2.30;99.90;;;;;;5243906;28;20664;-49
2024/01/14 02:48:46;;;;;;;8.70;3.83;;;2.30;99.90;;;;;;5238698;28;20202;-50
2024/01/14 02:51:17;;;;;;;12.63;4.30;;;2.40;99.90;;;;;;5240555;28;20542;-50
2024/01/14 02:53:47;;;;;;;7.43;3.07;;;2.40;99.90;;;;;;5237914;28;20190;-49
2024/01/14 02:56:18;;;;;;;10.67;3.90;;;2.40;99.90;;;;;;5240820;28;20521;-50
2024/01/14 02:58:49;;;;;;;8.07;3.00;;;2.40;99.90;;;;;;5241877;28;20251;-49
2024/01/14 03:01:19;;;;;;;5.13;3.27;;;2.40;99.90;;;;;;5242720;28;20193;-50
2024/01/14 03:03:50;;;;;;;10.30;2.50;;;2.40;99.90;;;;;;5238091;28;20369;-49
2024/01/14 03:06:21;;;;;;;19.40;3.80;;;2.40;99.90;;;;;;5240320;28;20182;-50
2024/01/14 03:08:51;;;;;;;7.70;3.20;;;2.40;99.90;;;;;;5242162;28;20259;-49
2024/01/14 03:11:22;;;;;;;7.97;2.90;;;2.40;99.90;;;;;;5239984;28;20523;-49
2024/01/14 03:13:52;;;;;;;4.20;3.50;;;2.40;99.90;;;;;;5241079;28;20707;-48
2024/01/14 03:16:23;;;;;;;6.90;3.47;;;2.30;99.90;;;;;;5242489;28;20174;-48
2024/01/14 03:18:54;;;;;;;4.73;2.50;;;2.40;99.90;;;;;;5244272;28;20222;-49
2024/01/14 03:21:24;;;;;;;17.40;2.90;;;2.30;99.90;;;;;;5246348;28;20585;-48
2024/01/14 03:23:55;;;;;;;5.00;2.70;;;2.30;99.90;;;;;;5244244;28;20260;-49
2024/01/14 03:26:25;;;;;;;8.00;2.60;;;2.30;99.90;;;;;;5243667;28;20186;-49
2024/01/14 03:28:56;;;;;;;5.07;2.50;;;2.30;99.90;;;;;;5245540;28;20263;-49
2024/01/14 03:31:27;;;;;;;10.50;2.60;;;2.30;99.90;;;;;;5241481;28;20174;-48
2024/01/14 03:33:57;;;;;;;4.83;2.03;;;2.30;99.90;;;;;;5242960;28;20229;-48
2024/01/14 03:36:28;;;;;;;25.03;2.90;;;2.30;99.90;;;;;;5241791;28;20187;-48
2024/01/14 03:38:58;;;;;;;9.20;2.07;;;2.30;99.90;;;;;;5239236;28;20201;-48
2024/01/14 03:41:30;;;;;;;5.47;2.07;;;2.20;99.90;;;;;;5224064;28;20186;-49
2024/01/14 03:44:01;;;;;;;6.23;2.53;;;2.10;99.90;;;;;;5245669;28;20546;-49
2024/01/14 03:46:31;;;;;;;13.57;2.60;;;2.00;99.90;;;;;;5237756;28;20449;-49
2024/01/14 03:49:02;;;;;;;10.33;2.93;;;2.00;99.90;;;;;;5241466;28;20295;-49
2024/01/14 03:51:33;;;;;;;14.10;2.33;;;2.00;99.90;;;;;;5241411;28;20213;-48
2024/01/14 03:54:04;;;;;;;6.80;2.83;;;1.90;99.90;;;;;;5240666;28;20270;-49
2024/01/14 03:56:34;;;;;;;23.77;3.73;;;1.90;99.90;;;;;;5240017;28;20175;-49
2024/01/14 03:59:06;;;;;;;13.23;2.20;;;1.90;99.90;;;;;;5243023;28;20467;-49
2024/01/14 04:01:36;;;;;;;10.53;3.03;;;1.90;99.90;;;;;;5243514;28;20736;-48
2024/01/14 04:04:07;;;;;;;7.83;1.87;;;1.90;99.90;;;;;;5245694;28;20432;-49
2024/01/14 04:06:37;;;;;;;16.43;2.50;;;1.90;99.90;;;;;;5242783;28;20173;-49
2024/01/14 04:09:08;;;;;;;11.93;1.80;;;1.90;99.90;;;;;;5240287;28;20739;-49
2024/01/14 04:11:39;;;;;;;7.13;2.70;;;1.90;99.90;;;;;;5243991;28;20174;-49
2024/01/14 04:14:10;;;;;;;9.60;2.03;;;1.90;99.90;;;;;;5238275;28;20429;-49
2024/01/14 04:16:41;;;;;;;16.13;2.90;;;1.90;99.90;;;;;;5245243;28;20253;-49
2024/01/14 04:19:12;;;;;;;9.87;2.27;;;2.00;99.90;;;;;;5245613;28;20198;-50
2024/01/14 04:21:42;;;;;;;6.47;2.07;;;2.00;99.90;;;;;;5244317;28;21192;-48
2024/01/14 04:24:13;;;;;;;8.37;2.30;;;2.00;99.90;;;;;;5236229;28;20178;-49
2024/01/14 04:26:43;;;;;;;14.47;2.77;;;2.10;99.90;;;;;;5244668;28;20183;-49
2024/01/14 04:29:14;;;;;;;17.03;2.53;;;2.10;99.90;;;;;;5237259;28;20246;-49
2024/01/14 04:31:45;;;;;;;11.00;2.40;;;2.10;99.90;;;;;;5242185;28;20186;-49
2024/01/14 04:34:15;;;;;;;8.60;1.73;;;2.10;99.90;;;;;;5241669;28;20183;-49
2024/01/14 04:36:46;;;;;;;16.87;2.77;;;2.10;99.90;;;;;;5247220;28;20202;-49
2024/01/14 04:39:16;;;;;;;6.70;1.97;;;2.20;99.90;;;;;;5239345;28;21106;-48
2024/01/14 04:41:47;;;;;;;16.87;2.47;;;2.10;99.90;;;;;;5239090;28;20183;-48
2024/01/14 04:44:18;;;;;;;16.07;2.13;;;2.20;99.90;;;;;;5241102;28;20642;-49
2024/01/14 04:46:48;;;;;;;16.47;2.47;;;2.20;99.90;;;;;;5238874;28;20201;-48
2024/01/14 04:49:19;;;;;;;15.33;3.07;;;2.30;99.90;;;;;;5242809;28;20817;-48
2024/01/14 04:51:50;;;;;;;11.60;3.60;;;2.20;99.90;;;;;;5241279;28;20181;-49
2024/01/14 04:54:20;;;;;;;11.23;2.30;;;2.20;99.90;;;;;;5243652;28;20271;-51
2024/01/14 04:56:52;;;;;;;5.07;1.80;;;2.20;99.90;;;;;;5234362;28;20218;-48
2024/01/14 04:59:23;;;;;;;11.70;2.63;;;2.20;99.90;;;;;;5236121;28;20202;-48
2024/01/14 05:01:53;;;;;;;9.17;2.73;;;2.20;99.90;;;;;;5239632;28;20798;-48
2024/01/14 05:04:24;;;;;;;16.03;2.10;;;2.30;99.90;;;;;;5235544;28;20190;-48
2024/01/14 05:06:54;;;;;;;7.77;1.83;;;2.20;99.90;;;;;;5241097;28;20178;-49
2024/01/14 05:09:25;;;;;;;16.57;3.10;;;2.20;99.90;;;;;;5245886;28;20210;-49
2024/01/14 05:11:56;;;;;;;11.60;2.90;;;2.20;99.90;;;;;;5247794;28;20642;-48
2024/01/14 05:14:26;;;;;;;19.27;2.63;;;2.20;99.90;;;;;;5237579;28;20245;-49
2024/01/14 05:16:57;;;;;;;8.70;1.90;;;2.20;99.90;;;;;;5241747;28;20198;-47
2024/01/14 05:19:28;;;;;;;10.40;2.60;;;2.20;99.90;;;;;;5238208;28;20666;-49
2024/01/14 05:21:59;;;;;;;13.07;2.90;;;2.20;99.90;;;;;;5240998;28;20170;-48
2024/01/14 05:24:30;;;;;;;6.60;2.30;;;2.20;99.90;;;;;;5243719;28;20436;-48
2024/01/14 05:27:01;;;;;;;22.30;2.90;;;2.20;99.90;;;;;;5243294;28;20428;-49
2024/01/14 05:29:32;;;;;;;10.60;1.97;;;2.20;99.90;;;;;;5242865;28;20283;-49
2024/01/14 05:32:03;;;;;;;12.63;2.90;;;2.20;99.90;;;;;;5241680;28;20472;-49
2024/01/14 05:34:34;;;;;;;6.60;2.23;;;2.30;99.90;;;;;;5241951;28;20539;-48
2024/01/14 05:37:05;;;;;;;11.40;3.00;;;2.30;99.90;;;;;;5238149;28;20453;-48
2024/01/14 05:39:37;;;;;;;10.83;2.00;;;2.30;99.90;;;;;;5235946;28;20275;-49
2024/01/14 05:42:07;;;;;;;7.30;1.90;;;2.20;99.90;;;;;;5246262;28;20423;-48
2024/01/14 05:44:38;;;;;;;11.33;2.37;;;2.20;99.90;;;;;;5245919;28;20946;-52
2024/01/14 05:47:08;;;;;;;16.60;2.60;;;2.20;99.90;;;;;;5239174;28;20197;-49
2024/01/14 05:49:39;;;;;;;11.87;2.03;;;2.20;99.90;;;;;;5242483;28;20213;-49
2024/01/14 05:52:10;;;;;;;7.87;1.90;;;2.30;99.90;;;;;;5245444;28;20312;-49
2024/01/14 05:54:44;;;;;;;11.33;2.23;;;2.30;99.90;;;;;;5237318;28;20224;-50
2024/01/14 05:57:15;;;;;;;5.63;1.80;;;2.30;99.90;;;;;;5243508;28;20464;-50
2024/01/14 05:59:46;;;;;;;8.07;2.13;;;2.30;99.90;;;;;;5244006;28;21419;-49
2024/01/14 06:02:17;;;;;;;8.47;1.50;;;2.30;99.90;;;;;;5245347;28;20186;-48
2024/01/14 06:04:48;;;;;;;12.47;2.40;;;2.30;99.90;;;;;;5225111;28;20749;-50
2024/01/14 06:07:18;;;;;;;4.97;1.93;;;2.20;99.90;;;;;;5241530;28;20186;-49
2024/01/14 06:09:49;;;;;;;7.60;2.50;;;2.20;99.90;;;;;;5244286;28;20237;-49
2024/01/14 06:12:20;;;;;;;7.90;2.40;;;2.10;99.90;;;;;;5240110;28;20183;-49
2024/01/14 06:14:50;;;;;;;14.33;2.70;;;2.10;99.90;;;;;;5243261;28;20399;-48
2024/01/14 06:17:21;;;;;;;13.80;2.20;;;2.10;99.90;;;;;;5241240;28;20721;-48
2024/01/14 06:19:51;;;;;;;8.27;2.37;;;2.10;99.90;;;;;;5242296;28;20199;-48
2024/01/14 06:22:22;;;;;;;12.53;2.57;;;2.00;99.90;;;;;;5238057;28;20167;-48
2024/01/14 06:24:53;;;;;;;6.27;2.17;;;2.00;99.90;;;;;;5240072;28;20187;-49
2024/01/14 06:27:23;;;;;;;12.67;2.17;;;2.00;99.90;;;;;;5237575;28;20537;-49
2024/01/14 06:29:54;;;;;;;8.97;2.40;;;2.00;99.90;;;;;;5234512;28;20216;-48
2024/01/14 06:32:25;;;;;;;10.10;2.00;;;1.90;99.90;;;;;;5240401;28;20587;-49
2024/01/14 06:34:55;;;;;;;5.27;1.53;;;1.90;99.90;;;;;;5239264;28;20522;-48
2024/01/14 06:37:26;;;;;;;12.40;2.03;;;1.90;99.90;;;;;;5237547;28;20265;-48
2024/01/14 06:39:56;;;;;;;11.00;2.03;;;1.90;99.90;;;;;;5233748;28;20198;-48
2024/01/14 06:42:27;;;;;;;8.83;2.60;;;2.00;99.90;;;;;;5238770;28;20185;-48
2024/01/14 06:44:58;;;;;;;13.47;1.53;;;2.00;99.90;;;;;;5222819;28;20610;-48
2024/01/14 06:47:29;;;;;;;5.90;2.80;;;1.90;99.90;;;;;;5240340;28;20436;-49
2024/01/14 06:49:59;;;;;;;12.47;2.10;;;1.90;99.90;;;;;;5246569;28;20609;-48
2024/01/14 06:52:30;;;;;;;14.63;1.70;;;1.90;99.90;;;;;;5246345;28;20190;-48
2024/01/14 06:55:02;;;;;;;13.53;2.27;;;1.90;99.90;;;;;;5250028;28;20289;-49
2024/01/14 06:57:34;;;;;;;10.37;3.10;;;1.90;99.90;;;;;;5242785;28;20682;-48
2024/01/14 07:00:07;;;;;;;14.97;2.40;;;2.00;99.90;;;;;;5239527;28;20436;-49
2024/01/14 07:02:38;;;;;;;3.27;1.40;;;2.00;99.90;;;;;;5242012;28;20704;-48
2024/01/14 07:05:10;;;;;;;5.03;1.77;;;2.00;99.90;;;;;;5245794;28;20959;-49
2024/01/14 07:07:40;;;;;;;13.63;2.03;;;2.00;99.90;;;;;;5245810;28;20464;-49
2024/01/14 07:10:11;;;;;;;17.97;2.63;;;1.90;99.90;;;;;;5245181;28;20917;-48
2024/01/14 07:12:42;;;;;;;13.53;2.47;;;2.00;99.90;;;;;;5241585;28;20262;-50
2024/01/14 07:15:12;;;;;;;7.17;2.47;;;1.90;99.90;;;;;;5241523;28;20260;-49
2024/01/14 07:17:43;;;;;;;9.90;2.40;;;2.00;99.90;;;;;;5243461;28;20686;-50
2024/01/14 07:20:14;;;;;;;8.70;2.47;;;1.90;99.90;;;;;;5239771;28;20734;-48
2024/01/14 07:22:45;;;;;;;10.43;2.60;;;1.90;99.90;;;;;;5246932;28;20196;-49
2024/01/14 07:25:16;;;;;;;13.63;2.40;;;2.00;99.90;;;;;;5244510;28;20178;-48
2024/01/14 07:27:46;;;;;;;19.83;3.40;;;2.00;99.90;;;;;;5224222;28;20464;-48
2024/01/14 07:30:18;;;;;;;8.23;1.80;;;2.00;99.90;;;;;;5241676;28;20593;-49
2024/01/14 07:32:48;;;;;;;12.67;2.50;;;2.00;99.90;;;;;;5246619;28;20189;-48
2024/01/14 07:35:19;;;;;;;6.20;1.90;;;2.10;99.90;;;;;;5244325;28;20482;-49
2024/01/14 07:37:50;;;;;;;15.23;2.87;;;2.10;99.90;;;;;;5244086;28;20263;-50
2024/01/14 07:40:20;;;;;;;9.50;2.07;;;2.00;99.90;;;;;;5245526;28;20197;-50
2024/01/14 07:42:51;;;;;;;9.43;1.90;;;2.00;99.90;;;;;;5237800;28;20186;-50
2024/01/14 07:45:21;;;;;;;5.10;1.80;;;2.10;99.90;;;;;;5237089;28;20224;-49
2024/01/14 07:47:52;;;;;;;9.10;2.20;;;2.00;99.90;;;;;;5244740;28;20265;-48
2024/01/14 07:50:23;;;;;;;11.03;2.30;;;2.00;99.90;;;;;;5240537;28;20214;-48
2024/01/14 07:52:53;;;;;;;11.67;1.70;;;2.00;99.90;;;;;;5242586;28;20540;-48
2024/01/14 07:55:24;;;;;;;10.33;1.83;;;2.00;99.90;;;;;;5247311;28;20238;-49
2024/01/14 07:57:57;;;;;;;4.40;1.70;;;2.10;99.90;;;;;;5243550;28;20210;-48
2024/01/14 08:00:27;;;;;;;4.00;2.10;;;2.10;99.90;;;;;;5242119;28;20301;-50
2024/01/14 08:02:58;;;;;;;8.17;2.20;;;2.20;99.90;;;;;;5242767;28;20437;-48
2024/01/14 08:05:28;;;;;;;5.90;2.20;;;2.10;99.90;;;;;;5240283;28;20190;-47
2024/01/14 08:07:59;;;;;;;8.43;1.90;;;2.20;99.90;;;;;;5243167;28;20214;-49
2024/01/14 08:10:30;;;;;;;6.63;2.47;;;2.30;99.90;;;;;;5244813;28;20708;-49
2024/01/14 08:13:00;;;;;;;4.00;1.70;;;2.30;99.90;;;;;;5242251;28;20182;-50
2024/01/14 08:15:31;;;;;;;9.17;2.40;;;2.40;99.90;;;;;;5245069;28;20201;-49
2024/01/14 08:18:02;;;;;;;14.40;2.30;;;2.40;99.90;;;;;;5234780;28;20206;-48
2024/01/14 08:20:32;;;;;;;10.10;1.60;;;2.30;99.90;;;;;;5242893;28;20179;-49
2024/01/14 08:23:03;;;;;;;13.53;1.60;;;2.40;99.90;;;;;;5244277;28;20274;-48
2024/01/14 08:25:34;;;;;;;3.77;1.50;;;2.40;99.90;;;;;;5241565;28;20585;-48
2024/01/14 08:28:05;;;;;;;13.80;2.40;;;2.40;99.90;;;;;;5235840;28;20270;-49
2024/01/14 08:30:36;;;;;;;2.13;1.97;;;2.40;99.90;;;;;;5246302;28;20555;-49
2024/01/14 08:33:06;;;;;;;5.50;2.03;;;2.50;99.90;;;;;;5246994;28;20250;-47
2024/01/14 08:35:37;;;;;;;7.63;2.00;;;2.50;99.90;;;;;;5244775;28;20178;-48
2024/01/14 08:38:07;;;;;;;6.63;2.13;;;2.50;99.90;;;;;;5246269;28;20213;-49
2024/01/14 08:40:38;;;;;;;3.40;1.80;;;2.50;99.90;;;;;;5244846;28;20573;-49
2024/01/14 08:43:08;;;;;;;6.53;1.77;;;2.50;99.90;;;;;;5225962;28;20194;-47
2024/01/14 08:45:39;;;;;;;2.77;1.33;;;2.70;99.90;;;;;;5243301;28;20603;-48
2024/01/14 08:48:11;;;;;;;9.57;2.60;;;2.70;99.90;;;;;;5245690;28;20186;-48
2024/01/14 08:50:42;;;;;;;9.77;1.90;;;2.70;99.90;;;;;;5244577;28;20232;-49
2024/01/14 08:53:13;;;;;;;8.23;2.50;;;2.70;99.90;;;;;;5250942;28;20439;-49
2024/01/14 08:55:44;;;;;;;7.63;1.40;;;2.70;99.90;;;;;;5247058;28;20197;-47
2024/01/14 08:58:14;;;;;;;12.07;1.93;;;2.80;99.90;;;;;;5249910;28;20464;-49
2024/01/14 09:00:45;;;;;;;6.73;1.67;;;2.80;99.90;;;;;;5240096;28;20222;-49
2024/01/14 09:03:16;;;;;;;3.83;1.67;;;2.80;99.90;;;;;;5240291;28;20273;-48
2024/01/14 09:05:47;;;;;;;7.03;1.33;;;2.90;99.90;;;;;;5244855;28;20225;-48
2024/01/14 09:08:18;;;;;;;5.60;1.80;;;2.90;99.90;;;;;;5241083;28;20461;-48
2024/01/14 09:10:48;;;;;;;8.97;1.60;;;2.90;99.90;;;;;;5236889;28;20189;-49
2024/01/14 09:13:19;;;;;;;11.50;1.87;;;2.90;99.90;;;;;;5238611;28;20655;-49
2024/01/14 09:15:49;;;;;;;6.70;1.60;;;3.00;99.90;;;;;;5241830;28;20214;-49
2024/01/14 09:18:20;;;;;;;8.30;1.60;;;3.00;99.90;;;;;;5243795;28;20214;-48
2024/01/14 09:20:51;;;;;;;1.50;1.00;;;3.10;99.90;;;;;;5238029;28;20181;-47
2024/01/14 09:23:21;;;;;;;1.80;1.70;;;3.10;99.90;;;;;;5241272;28;20198;-49
2024/01/14 09:25:52;;;;;;;5.10;2.37;;;3.10;99.90;;;;;;5244195;28;20254;-49
2024/01/14 09:28:25;;;;;;;1.97;1.50;;;3.10;99.90;;;;;;5240342;28;20250;-48
2024/01/14 09:30:56;;;;;;;13.07;2.00;;;3.20;99.90;;;;;;5234238;28;20175;-49
2024/01/14 09:33:27;;;;;;;4.80;1.33;;;3.20;99.90;;;;;;5239756;28;20432;-50
2024/01/14 09:36:05;;;;;;;8.27;1.67;;;3.30;99.90;;;;;;5243776;28;20262;-49
2024/01/14 09:38:37;;;;;;;10.07;1.83;;;3.20;99.90;;;;;;5237826;28;20199;-48
2024/01/14 09:41:21;;;;;;;3.17;1.67;;;3.20;99.90;;;;;;5243929;28;20421;-50
2024/01/14 09:43:52;;;;;;;15.17;1.77;;;3.20;99.90;;;;;;5233012;28;20460;-50
2024/01/14 09:46:22;;;;;;;5.90;1.77;;;3.10;99.90;;;;;;5242134;28;20437;-49
2024/01/14 09:48:55;;;;;;;5.13;1.80;;;3.20;99.90;;;;;;5246381;28;20214;-49
2024/01/14 09:51:31;;;;;;;4.33;1.47;;;3.20;99.90;;;;;;5233221;28;20501;-50
2024/01/14 09:54:01;;;;;;;4.73;1.50;;;3.20;99.90;;;;;;5235418;28;20807;-51
2024/01/14 09:56:33;;;;;;;6.47;1.63;;;3.10;99.90;;;;;;5235924;28;20479;-49
2024/01/14 09:59:06;;;;;;;8.20;2.40;;;3.20;99.90;;;;;;5235167;28;20686;-48
2024/01/14 10:01:40;;;;;;;3.20;2.43;;;3.30;99.90;;;;;;5237903;28;20456;-48
2024/01/14 10:04:13;;;;;;;7.00;1.93;;;3.30;99.90;;;;;;5239680;28;20437;-49
2024/01/14 10:06:45;;;;;;;10.30;2.33;;;3.10;99.90;;;;;;5236962;28;20538;-48
2024/01/14 10:09:16;;;;;;;5.90;2.23;;;3.10;99.90;;;;;;5240503;28;20453;-48
2024/01/14 10:11:47;;;;;;;17.30;1.90;;;3.10;99.90;;;;;;5235932;28;20440;-49
2024/01/14 10:14:24;;;;;;;11.63;1.77;;;3.20;99.90;;;;;;5237441;28;20422;-50
2024/01/14 10:16:55;;;;;;;8.70;1.57;;;3.20;99.90;;;;;;5250930;28;20232;-50
2024/01/14 10:19:26;;;;;;;4.57;1.73;;;3.30;99.90;;;;;;5236641;28;20450;-51
2024/01/14 10:21:57;;;;;;;15.40;2.60;;;3.30;99.90;;;;;;5236957;28;20436;-51
2024/01/14 10:24:28;;;;;;;22.73;3.47;;;3.20;99.90;;;;;;5239910;28;20676;-48
2024/01/14 10:26:58;;;;;;;7.07;1.87;;;3.30;99.90;;;;;;5234444;28;20195;-50
2024/01/14 10:29:29;;;;;;;6.43;1.97;;;3.50;99.90;;;;;;5236789;28;20214;-49
2024/01/14 10:32:00;;;;;;;7.03;2.17;;;3.80;99.90;;;;;;5235652;28;20198;-49
2024/01/14 10:34:31;;;;;;;5.70;1.70;;;3.70;99.90;;;;;;5235524;28;20987;-48
2024/01/14 10:37:03;;;;;;;7.97;1.97;;;3.70;99.90;;;;;;5235941;28;20241;-49
2024/01/14 10:39:35;;;;;;;7.10;1.60;;;3.70;99.90;;;;;;5235091;28;20567;-49
2024/01/14 10:42:05;;;;;;;8.13;2.47;;;3.60;99.90;;;;;;5237782;28;20433;-49
2024/01/14 10:44:36;;;;;;;5.93;2.37;;;3.80;99.90;;;;;;5233522;28;20445;-48
2024/01/14 10:47:10;;;;;;;3.93;1.97;;;3.80;99.90;;;;;;5237434;28;20460;-47
2024/01/14 10:49:43;;;;;;;8.57;2.17;;;3.70;99.90;;;;;;5231298;28;20202;-50
2024/01/14 10:52:17;;;;;;;4.60;1.63;;;3.70;99.90;;;;;;5236574;28;20429;-51
2024/01/14 10:54:50;;;;;;;13.90;1.80;;;3.70;99.90;;;;;;5239517;28;20419;-49
2024/01/14 10:57:37;;;;;;;4.50;1.50;;;3.70;99.90;;;;;;5233710;28;20452;-49
2024/01/14 11:00:09;;;;;;;9.30;2.20;;;3.90;99.90;;;;;;5231989;28;20445;-51
2024/01/14 11:02:41;;;;;;;5.03;1.50;;;3.90;99.90;;;;;;5235209;28;20449;-51
2024/01/14 11:05:12;;;;;;;7.83;2.30;;;3.80;99.90;;;;;;5236573;28;20440;-48
2024/01/14 11:07:42;;;;;;;6.30;1.97;;;3.90;99.90;;;;;;5235276;28;20429;-51
2024/01/14 11:10:14;;;;;;;4.70;1.60;;;3.80;99.90;;;;;;5239237;28;20480;-48
2024/01/14 11:12:58;;;;;;;8.20;1.60;;;3.80;99.90;;;;;;5239990;28;20175;-49
2024/01/14 11:15:42;;;;;;;15.00;2.13;;;3.70;99.90;;;;;;5237614;28;20959;-51
2024/01/14 11:18:22;;;;;;;8.03;1.80;;;3.80;99.90;;;;;;5235800;28;20865;-49
2024/01/14 11:21:14;;;;;;;4.63;1.73;;;4.10;99.90;;;;;;5236194;28;20463;-48
2024/01/14 11:23:45;;;;;;;5.47;1.87;;;4.30;99.90;;;;;;5238471;28;20982;-48
2024/01/14 11:26:16;;;;;;;5.70;1.87;;;4.40;99.90;;;;;;5238644;28;20433;-49
2024/01/14 11:28:47;;;;;;;9.37;2.30;;;4.60;99.90;;;;;;5236115;28;20219;-48
2024/01/14 11:31:17;;;;;;;3.33;1.07;;;4.70;99.90;;;;;;5236196;28;20438;-49
2024/01/14 11:33:49;;;;;;;7.50;1.87;;;4.70;99.90;;;;;;5236403;28;20184;-50
2024/01/14 11:36:55;;;;;;;8.17;1.53;;;4.80;99.90;;;;;;5237137;28;20189;-49
2024/01/14 11:39:26;;;;;;;4.07;1.33;;;4.90;99.90;;;;;;5236451;28;21115;-50
2024/01/14 11:41:57;;;;;;;4.93;1.70;;;4.90;99.90;;;;;;5240198;28;20426;-49
2024/01/14 11:44:34;;;;;;;6.40;1.77;;;4.80;99.90;;;;;;5236007;28;20183;-50
2024/01/14 11:47:07;;;;;;;6.17;2.20;;;4.50;99.90;;;;;;5242577;28;20433;-50
2024/01/14 11:49:39;;;;;;;4.90;2.17;;;4.40;99.90;;;;;;5234466;28;20883;-48
2024/01/14 11:52:10;;;;;;;7.40;2.20;;;4.40;99.90;;;;;;5239795;28;20506;-50
2024/01/14 11:54:44;;;;;;;5.97;1.90;;;4.40;99.90;;;;;;5238204;28;20487;-49
2024/01/14 11:57:24;;;;;;;7.27;2.10;;;4.30;99.90;;;;;;5237433;28;20823;-49
2024/01/14 11:59:55;;;;;;;7.40;2.10;;;4.10;99.90;;;;;;5239766;28;20495;-49
2024/01/14 12:02:25;;;;;;;5.57;2.10;;;4.10;99.90;;;;;;5237499;28;20516;-48
2024/01/14 12:04:56;;;;;;;3.27;1.80;;;4.10;99.90;;;;;;5236125;28;20176;-49
2024/01/14 12:07:26;;;;;;;6.20;1.87;;;4.10;99.90;;;;;;5238998;28;20679;-49
2024/01/14 12:09:57;;;;;;;12.10;2.00;;;4.10;99.90;;;;;;5241886;28;20203;-50
2024/01/14 12:12:28;;;;;;;11.33;2.10;;;4.00;99.90;;;;;;5233780;28;20183;-48
2024/01/14 12:14:59;;;;;;;8.73;2.40;;;4.10;99.90;;;;;;5236628;28;20200;-49
2024/01/14 12:17:31;;;;;;;5.50;2.00;;;4.30;99.90;;;;;;5223023;28;20574;-49
2024/01/14 12:20:04;;;;;;;8.03;2.00;;;4.20;99.90;;;;;;5236403;28;20453;-48
2024/01/14 12:22:35;;;;;;;2.53;1.40;;;4.10;99.90;;;;;;5232352;28;20451;-49
2024/01/14 12:25:06;;;;;;;3.23;1.93;;;4.20;99.90;;;;;;5236101;28;21171;-49
2024/01/14 12:27:37;;;;;;;11.33;2.70;;;4.20;99.90;;;;;;5240671;28;20238;-49
2024/01/14 12:30:08;;;;;;;3.43;1.77;;;4.10;99.90;;;;;;5233890;28;21009;-50
2024/01/14 12:32:39;;;;;;;6.97;2.23;;;4.10;99.90;;;;;;5234951;28;20485;-49
2024/01/14 12:35:09;;;;;;;4.83;2.00;;;4.10;99.90;;;;;;5238064;28;20269;-49
2024/01/14 12:37:40;;;;;;;3.87;1.90;;;4.20;99.90;;;;;;5239938;28;20225;-51
2024/01/14 12:40:11;;;;;;;4.57;1.90;;;4.30;99.90;;;;;;5233292;28;20208;-50
2024/01/14 12:42:42;;;;;;;7.67;2.83;;;4.10;99.90;;;;;;5233554;28;20473;-49
2024/01/14 12:45:14;;;;;;;3.87;1.40;;;4.10;99.90;;;;;;5235561;28;20222;-49
2024/01/14 12:47:55;;;;;;;7.37;2.00;;;4.10;99.90;;;;;;5240030;28;20186;-48
2024/01/14 12:50:28;;;;;;;5.40;2.20;;;4.20;99.90;;;;;;5240906;28;20455;-49
2024/01/14 12:53:19;;;;;;;11.00;2.40;;;4.10;99.90;;;;;;5232085;28;20489;-49
2024/01/14 12:55:50;;;;;;;8.73;2.00;;;4.20;99.90;;;;;;5234675;28;20460;-49
2024/01/14 12:58:21;;;;;;;1.77;1.67;;;4.10;99.90;;;;;;5234987;28;20471;-50
2024/01/14 13:00:52;;;;;;;2.30;2.10;;;4.00;99.90;;;;;;5243504;28;20445;-48
2024/01/14 13:03:22;;;;;;;3.33;1.93;;;4.00;99.90;;;;;;5244149;28;20628;-46
2024/01/14 13:05:53;;;;;;;4.23;3.13;;;3.90;99.90;;;;;;5245424;28;20270;-48
2024/01/14 13:08:24;;;;;;;6.43;3.00;;;3.80;99.90;;;;;;5243996;28;20664;-49
2024/01/14 13:10:54;;;;;;;12.67;3.60;;;3.80;99.90;;;;;;5245230;28;20186;-48
2024/01/14 13:13:25;;;;;;;3.87;2.30;;;3.80;99.90;;;;;;5241079;28;20268;-48